Time;durP1;ratioP1;P1;durP2;ratioP2;P2;SDS_P1;SDS_P2;PMS_P1;PMS_P2;Temp;Humidity;BMP_temperature;BMP_pressure;BME280_temperature;BME280_humidity;BME280_pressure;Samples;Min_cycle;Max_cycle;Signal;HPM_P1;HPM_P2
2021/12/22 00:00:13;;;;;;;7.00;2.77;;;;;;;-13.93;52.55;99546.38;6066847;23;20101;-78
2021/12/22 00:02:46;;;;;;;8.67;3.27;;;;;;;-14.09;52.42;99534.19;6067692;23;20089;-79
2021/12/22 00:05:32;;;;;;;7.47;3.20;;;;;;;-14.02;52.49;99540.59;6066511;23;20377;-78
2021/12/22 00:07:59;;;;;;;8.60;3.00;;;;;;;-13.96;52.35;99555.25;6067654;23;20033;-78
2021/12/22 00:10:25;;;;;;;9.87;3.50;;;;;;;-14.07;52.92;99529.34;6066833;23;20018;-81
2021/12/22 00:12:51;;;;;;;7.00;2.77;;;;;;;-14.15;52.57;99540.31;6066366;23;20015;-81
2021/12/22 00:15:18;;;;;;;7.33;2.97;;;;;;;-14.18;52.19;99548.44;6065567;23;20019;-79
2021/12/22 00:17:44;;;;;;;8.13;3.10;;;;;;;-14.65;52.34;99476.13;6041444;23;20019;-78
2021/12/22 00:20:11;;;;;;;6.93;3.10;;;;;;;-14.23;52.63;99543.03;6045596;23;20015;-77
2021/12/22 00:22:38;;;;;;;5.80;3.13;;;;;;;-14.14;52.17;99557.06;6086844;23;20022;-78
2021/12/22 00:25:05;;;;;;;5.97;2.57;;;;;;;-14.51;51.79;99507.31;6067126;23;20424;-78
2021/12/22 00:27:31;;;;;;;8.53;2.63;;;;;;;-14.44;52.28;99543.69;6066667;23;20077;-79
2021/12/22 00:29:56;;;;;;;9.20;2.67;;;;;;;-14.41;53.13;99546.47;6041549;23;20105;-78
2021/12/22 00:32:25;;;;;;;10.63;3.47;;;;;;;-14.46;52.00;99551.06;6066381;23;20022;-79
2021/12/22 00:34:54;;;;;;;8.17;2.93;;;;;;;-14.65;52.50;99543.59;6066947;23;20051;-79
2021/12/22 00:37:29;;;;;;;6.50;2.60;;;;;;;-14.72;52.89;99549.72;6041059;23;20049;-77
2021/12/22 00:39:56;;;;;;;10.47;3.40;;;;;;;-14.97;52.78;99535.84;6067052;23;20022;-79
2021/12/22 00:42:24;;;;;;;7.47;3.10;;;;;;;-14.92;52.15;99554.63;6067211;23;20018;-75
2021/12/22 00:44:53;;;;;;;8.83;2.90;;;;;;;-14.97;52.43;99553.31;6067208;23;20018;-76
2021/12/22 00:47:24;;;;;;;6.00;2.23;;;;;;;-15.05;53.06;99538.56;6041297;23;20129;-79
2021/12/22 00:49:50;;;;;;;4.32;2.22;;;;;;;-15.06;52.25;99548.41;6065679;23;20113;-78
2021/12/22 00:52:16;;;;;;;7.17;2.70;;;;;;;-15.19;51.71;99536.44;6042078;23;20019;-79
2021/12/22 00:54:42;;;;;;;5.80;2.90;;;;;;;-15.25;51.93;99529.31;6076328;23;20030;-76
2021/12/22 00:57:09;;;;;;;6.17;2.53;;;;;;;-15.23;52.46;99541.94;6064934;23;20022;-78
2021/12/22 00:59:36;;;;;;;6.20;2.90;;;;;;;-15.17;52.94;99550.84;6067302;23;20077;-77
2021/12/22 01:02:06;;;;;;;8.87;3.33;;;;;;;-15.15;52.22;99551.88;6042138;23;20023;-79
2021/12/22 01:04:32;;;;;;;9.03;2.80;;;;;;;-15.28;52.18;99541.50;6066609;23;20366;-77
2021/12/22 01:06:57;;;;;;;4.70;2.57;;;;;;;-15.23;53.02;99549.44;6045755;23;20073;-78
2021/12/22 01:09:23;;;;;;;6.63;2.93;;;;;;;-15.17;53.28;99563.34;6047230;23;20023;-76
2021/12/22 01:11:50;;;;;;;5.37;2.73;;;;;;;-15.42;52.16;99531.94;6021545;23;20019;-77
2021/12/22 01:14:16;;;;;;;8.67;2.77;;;;;;;-15.39;52.35;99557.16;6042402;23;20082;-76
2021/12/22 01:16:48;;;;;;;6.83;2.40;;;;;;;-15.33;53.96;99563.59;6072450;23;20022;-79
2021/12/22 01:19:21;;;;;;;9.07;2.73;;;;;;;-15.33;52.78;99562.69;6070533;23;20026;-77
2021/12/22 01:21:54;;;;;;;7.57;2.70;;;;;;;-15.64;51.65;99530.88;6066235;23;20585;-81
2021/12/22 01:26:52;;;;;;;5.40;2.87;;;;;;;-15.67;52.61;99534.72;6057226;23;20023;-75
2021/12/22 01:29:19;;;;;;;4.32;2.28;;;;;;;-15.50;52.74;99562.06;6060485;23;20023;-75
2021/12/22 01:31:45;;;;;;;5.50;2.30;;;;;;;-15.38;52.12;99573.91;6060292;23;20018;-76
2021/12/22 01:34:11;;;;;;;6.07;2.17;;;;;;;-15.23;53.09;99576.91;6049232;23;20055;-77
2021/12/22 01:36:39;;;;;;;6.83;2.43;;;;;;;-15.18;52.31;99558.19;6041742;23;20051;-79
2021/12/22 01:39:05;;;;;;;8.63;3.17;;;;;;;-15.16;51.94;99557.59;6041381;23;20527;-80
2021/12/22 01:41:32;;;;;;;3.43;2.17;;;;;;;-15.11;52.63;99564.63;6065983;23;20067;-79
2021/12/22 01:43:58;;;;;;;4.93;2.10;;;;;;;-14.94;52.59;99574.47;6066695;23;20018;-79
2021/12/22 01:49:10;;;;;;;7.93;2.90;;;;;;;-14.77;52.41;99573.44;6066081;23;20021;-77
2021/12/22 01:51:38;;;;;;;8.97;3.30;;;;;;;-14.69;52.67;99561.63;6066221;23;20089;-78
2021/12/22 01:54:11;;;;;;;6.87;2.90;;;;;;;-14.69;52.04;99549.13;6042103;23;20022;-77
2021/12/22 01:56:36;;;;;;;;;;;;;;;-14.60;52.76;99559.88;6016991;23;20022;-76
2021/12/22 01:59:06;;;;;;;7.90;2.80;;;;;;;-14.57;52.78;99547.66;6041219;23;20004;-77
2021/12/22 02:01:33;;;;;;;8.03;2.90;;;;;;;-14.46;51.98;99550.22;6065953;23;20014;-77
2021/12/22 02:04:00;;;;;;;9.13;2.73;;;;;;;-14.37;52.41;99543.47;6065141;23;20074;-78
2021/12/22 02:06:27;;;;;;;11.30;3.30;;;;;;;-14.38;51.79;99535.13;5996605;23;20029;-77
2021/12/22 02:08:53;;;;;;;10.00;2.20;;;;;;;-14.41;52.14;99523.97;6066961;23;20042;-79
2021/12/22 02:11:21;;;;;;;5.43;2.60;;;;;;;-14.42;52.30;99512.19;6041100;23;20054;-79
2021/12/22 02:13:54;;;;;;;6.63;3.10;;;;;;;-14.43;52.62;99526.34;6041980;23;20034;-80
2021/12/22 02:16:26;;;;;;;6.87;2.40;;;;;;;-14.31;51.80;99551.50;6048697;23;20038;-76
2021/12/22 02:18:53;;;;;;;5.43;2.67;;;;;;;-14.27;52.83;99561.03;6068616;23;20015;-79
2021/12/22 02:21:21;;;;;;;6.60;3.10;;;;;;;-14.48;52.54;99515.06;6044708;23;20067;-79
2021/12/22 02:23:47;;;;;;;6.47;2.50;;;;;;;-14.17;52.50;99555.19;6044643;23;20019;-79
2021/12/22 02:26:19;;;;;;;6.00;2.50;;;;;;;-14.08;51.94;99560.09;6069951;23;20026;-78
2021/12/22 02:28:54;;;;;;;8.97;2.90;;;;;;;-14.11;52.73;99547.31;6068434;23;20022;-80
2021/12/22 02:31:21;;;;;;;7.10;2.77;;;;;;;-14.02;51.92;99564.72;6044132;23;20027;-78
2021/12/22 02:33:49;;;;;;;8.43;3.40;;;;;;;-14.08;52.01;99557.59;6068029;23;20019;-81
2021/12/22 02:38:48;;;;;;;5.00;2.67;;;;;;;-14.05;52.00;99550.34;6044820;23;20018;-79
2021/12/22 02:41:15;;;;;;;10.47;3.67;;;;;;;-13.95;51.82;99567.00;6056023;23;20022;-78
2021/12/22 02:43:49;;;;;;;6.97;2.73;;;;;;;-13.93;52.16;99558.88;6060033;23;20026;-81
2021/12/22 02:46:19;;;;;;;7.27;3.53;;;;;;;-14.10;52.30;99537.44;6023112;23;20025;-79
2021/12/22 02:48:47;;;;;;;11.13;4.47;;;;;;;-14.05;52.88;99539.44;6069365;23;20101;-81
2021/12/22 02:51:14;;;;;;;12.23;5.17;;;;;;;-13.89;52.30;99567.50;6068312;23;20023;-79
2021/12/22 02:56:29;;;;;;;12.47;5.87;;;;;;;-14.06;52.18;99558.59;6068380;23;20035;-80
2021/12/22 02:59:17;;;;;;;13.03;4.60;;;;;;;-14.03;52.71;99570.47;6074485;23;20022;-82
2021/12/22 03:04:27;;;;;;;7.93;2.80;;;;;;;-14.21;51.86;99548.16;6046202;23;20372;-78
2021/12/22 03:06:59;;;;;;;10.05;3.05;;;;;;;-14.09;51.95;99561.69;6087813;23;20015;-75
2021/12/22 03:09:31;;;;;;;6.80;2.75;;;;;;;-14.16;52.26;99531.94;6095486;23;20003;-77
2021/12/22 03:12:00;;;;;;;8.00;3.13;;;;;;;-13.89;52.17;99556.63;6093899;23;20003;-78
2021/12/22 03:14:26;;;;;;;6.47;2.63;;;;;;;-14.05;51.72;99544.44;6066337;23;20092;-77
2021/12/22 03:16:54;;;;;;;7.50;2.83;;;;;;;-13.94;52.16;99563.75;6079380;23;20074;-77
2021/12/22 03:19:24;;;;;;;6.50;3.00;;;;;;;-14.15;52.33;99526.19;6051259;23;20132;-77
2021/12/22 03:21:58;;;;;;;6.03;2.30;;;;;;;-14.00;52.33;99546.59;6079148;23;20126;-77
2021/12/22 03:24:25;;;;;;;7.73;2.83;;;;;;;-13.86;52.84;99561.91;6078137;23;20019;-77
2021/12/22 03:26:50;;;;;;;9.40;2.70;;;;;;;-13.94;52.71;99538.75;6046324;23;20019;-79
2021/12/22 03:29:18;;;;;;;5.37;3.03;;;;;;;-14.00;52.35;99546.59;6022936;23;20321;-79
2021/12/22 03:31:45;;;;;;;6.73;2.90;;;;;;;-14.22;52.26;99531.41;6043862;23;20043;-79
2021/12/22 03:34:12;;;;;;;8.40;3.07;;;;;;;-14.17;52.40;99572.69;6045518;23;20030;-79
2021/12/22 03:36:41;;;;;;;6.33;3.00;;;;;;;-14.30;51.53;99563.28;6075742;23;20022;-77
2021/12/22 03:39:08;;;;;;;6.00;2.73;;;;;;;-14.34;51.97;99558.75;6045889;23;20443;-81
2021/12/22 03:41:36;;;;;;;6.77;2.60;;;;;;;-14.38;52.54;99559.22;6069514;23;20018;-83
2021/12/22 03:44:07;;;;;;;6.03;2.23;;;;;;;-14.38;52.27;99554.22;6070288;23;20022;-78
2021/12/22 03:46:33;;;;;;;9.50;3.63;;;;;;;-14.42;52.68;99548.09;6068187;23;20046;-80
2021/12/22 03:48:59;;;;;;;8.60;2.73;;;;;;;-14.50;52.17;99555.69;6020748;23;20457;-80
2021/12/22 03:51:26;;;;;;;5.93;2.77;;;;;;;-14.68;51.95;99533.41;6057285;23;20007;-77
2021/12/22 03:53:52;;;;;;;7.27;2.43;;;;;;;-14.43;52.00;99570.44;6059537;23;20022;-76
2021/12/22 03:56:18;;;;;;;8.43;2.60;;;;;;;-14.63;52.60;99513.75;6075525;23;20026;-80
2021/12/22 03:58:44;;;;;;;7.17;2.70;;;;;;;-14.67;52.50;99500.09;6075625;23;20022;-77
2021/12/22 04:01:10;;;;;;;6.03;2.80;;;;;;;-14.28;52.84;99568.38;6051839;23;20038;-76
2021/12/22 04:03:37;;;;;;;5.47;2.40;;;;;;;-14.48;51.71;99536.69;6076984;23;20019;-77
2021/12/22 04:06:06;;;;;;;6.07;2.60;;;;;;;-14.63;52.93;99498.78;6051622;23;20046;-76
2021/12/22 04:08:32;;;;;;;4.33;2.07;;;;;;;-14.33;52.23;99563.00;6051454;23;20022;-79
2021/12/22 04:10:57;;;;;;;5.57;2.63;;;;;;;-14.15;51.97;99581.22;6051671;23;20022;-76
2021/12/22 04:13:23;;;;;;;5.67;2.50;;;;;;;-14.12;51.98;99591.44;6050991;23;20015;-76
2021/12/22 04:15:49;;;;;;;7.20;3.00;;;;;;;-14.13;52.15;99592.22;6082668;23;20015;-77
2021/12/22 04:18:16;;;;;;;5.57;2.30;;;;;;;-14.17;52.39;99571.81;6087387;23;20018;-78
2021/12/22 04:20:42;;;;;;;5.13;2.17;;;;;;;-14.11;52.13;99568.19;6059576;23;20029;-78
2021/12/22 04:23:09;;;;;;;6.63;2.57;;;;;;;-14.38;51.96;99510.13;6087809;23;20023;-77
2021/12/22 04:25:36;;;;;;;5.17;2.70;;;;;;;-13.90;52.23;99584.91;6087938;23;20018;-78
2021/12/22 04:28:06;;;;;;;8.43;2.87;;;;;;;-13.87;52.61;99580.16;6050731;23;20171;-79
2021/12/22 04:30:38;;;;;;;13.50;5.70;;;;;;;-14.08;51.71;99555.09;6079350;23;20043;-78
2021/12/22 04:33:04;;;;;;;14.57;5.32;;;;;;;-13.99;52.35;99570.84;6043219;23;20007;-79
2021/12/22 04:35:30;;;;;;;9.50;4.70;;;;;;;-13.98;51.89;99575.13;6088146;23;20456;-78
2021/12/22 04:37:57;;;;;;;11.60;3.67;;;;;;;-14.09;51.99;99560.84;6049415;23;20019;-80
2021/12/22 04:40:22;;;;;;;8.17;3.60;;;;;;;-14.01;51.50;99574.84;6070538;23;20018;-80
2021/12/22 04:42:48;;;;;;;10.43;3.27;;;;;;;-13.97;51.96;99583.50;6043787;23;20323;-78
2021/12/22 04:45:15;;;;;;;5.67;2.70;;;;;;;-14.01;52.16;99571.50;6068605;23;20058;-76
2021/12/22 04:47:51;;;;;;;6.50;2.80;;;;;;;-14.32;51.75;99529.75;6026215;23;20026;-75
2021/12/22 04:50:21;;;;;;;10.03;3.00;;;;;;;-14.30;51.75;99572.38;6081404;23;20078;-76
2021/12/22 04:53:08;;;;;;;10.13;3.30;;;;;;;-14.62;51.38;99565.50;6085625;23;20018;-76
2021/12/22 04:55:34;;;;;;;8.23;2.67;;;;;;;-14.87;51.29;99551.75;6076800;23;20019;-77
2021/12/22 04:58:00;;;;;;;7.83;3.33;;;;;;;-14.87;51.86;99591.75;6024373;23;20025;-78
2021/12/22 05:00:29;;;;;;;10.40;3.97;;;;;;;-15.09;51.76;99576.50;6002959;23;20050;-77
2021/12/22 05:02:56;;;;;;;9.67;3.43;;;;;;;-15.08;52.12;99584.84;6085151;23;20011;-78
2021/12/22 05:05:22;;;;;;;13.67;3.20;;;;;;;-15.28;52.26;99568.97;6070044;23;20026;-80
2021/12/22 05:07:47;;;;;;;6.80;3.27;;;;;;;-15.10;51.99;99591.31;6046868;23;20033;-75
2021/12/22 05:10:15;;;;;;;5.73;3.10;;;;;;;-15.23;52.91;99577.75;6068792;23;20022;-79
2021/12/22 05:12:42;;;;;;;6.83;3.23;;;;;;;-15.11;52.50;99594.59;6072275;23;20014;-80
2021/12/22 05:15:09;;;;;;;11.57;3.83;;;;;;;-15.38;52.79;99558.94;6068091;23;20023;-77
2021/12/22 05:18:00;;;;;;;7.03;3.30;;;;;;;-15.35;51.62;99569.19;6069556;23;20023;-82
2021/12/22 05:20:23;;;;;;;9.63;3.70;;;;;;;-15.15;52.96;99596.81;6070761;23;20018;-79
2021/12/22 05:22:50;;;;;;;9.40;3.97;;;;;;;-15.21;52.53;99606.25;6046712;23;20073;-76
2021/12/22 05:25:16;;;;;;;7.20;3.13;;;;;;;-15.25;52.02;99599.22;6071613;23;20081;-78
2021/12/22 05:27:42;;;;;;;13.63;3.93;;;;;;;-15.35;52.69;99594.16;6049918;23;20271;-79
2021/12/22 05:30:10;;;;;;;8.97;3.80;;;;;;;-15.34;51.44;99600.91;6051068;23;20078;-79
2021/12/22 05:32:36;;;;;;;9.23;3.13;;;;;;;-15.43;52.64;99600.91;6051327;23;20015;-77
2021/12/22 05:35:06;;;;;;;11.47;3.90;;;;;;;-15.71;52.41;99555.13;6048181;23;20078;-80
2021/12/22 05:37:31;;;;;;;11.27;4.60;;;;;;;-15.66;52.46;99566.41;6046282;23;20057;-80
2021/12/22 05:39:57;;;;;;;8.30;3.73;;;;;;;-15.61;52.66;99565.22;6069850;23;20014;-76
2021/12/22 05:42:24;;;;;;;10.37;4.63;;;;;;;-15.69;52.30;99561.16;6043567;23;20014;-77
2021/12/22 05:44:50;;;;;;;10.97;4.23;;;;;;;-15.41;52.07;99603.56;6044396;23;20078;-83
2021/12/22 05:47:16;;;;;;;13.97;4.20;;;;;;;-15.50;52.12;99586.16;6067076;23;20019;-79
2021/12/22 05:49:43;;;;;;;10.27;4.70;;;;;;;-15.42;52.58;99595.19;6043351;23;20026;-80
2021/12/22 05:52:10;;;;;;;9.50;4.80;;;;;;;-15.47;51.72;99593.94;6067405;23;20019;-78
2021/12/22 05:54:37;;;;;;;16.90;6.80;;;;;;;-15.65;52.60;99566.53;6068319;23;20098;-79
2021/12/22 05:57:04;;;;;;;11.20;5.03;;;;;;;-15.66;52.44;99571.41;6066104;23;20019;-82
2021/12/22 05:59:29;;;;;;;13.23;6.20;;;;;;;-15.53;52.94;99584.25;6045315;23;20464;-80
2021/12/22 06:01:55;;;;;;;16.00;5.60;;;;;;;-15.45;51.96;99600.78;6072139;23;20046;-79
2021/12/22 06:04:21;;;;;;;14.00;5.47;;;;;;;-15.71;51.68;99567.59;6045247;23;20279;-81
2021/12/22 06:06:47;;;;;;;12.53;4.43;;;;;;;-15.63;52.24;99596.63;6070418;23;20022;-77
2021/12/22 06:09:13;;;;;;;7.27;3.80;;;;;;;-15.87;51.75;99566.25;6045322;23;20057;-78
2021/12/22 06:11:38;;;;;;;13.17;5.20;;;;;;;-15.70;52.04;99584.34;6079826;23;20018;-77
2021/12/22 06:14:05;;;;;;;10.93;4.37;;;;;;;-15.55;52.57;99619.78;6078290;23;20134;-81
2021/12/22 06:16:32;;;;;;;9.33;4.70;;;;;;;-15.65;52.07;99593.97;6072774;23;20034;-81
2021/12/22 06:19:04;;;;;;;11.70;5.13;;;;;;;-15.58;51.80;99607.94;6072703;23;20074;-82
2021/12/22 06:21:31;;;;;;;14.43;5.70;;;;;;;-15.63;52.08;99572.56;6069012;23;20101;-76
2021/12/22 06:23:57;;;;;;;12.03;5.13;;;;;;;-15.33;51.87;99608.50;6068995;23;20118;-78
2021/12/22 06:26:23;;;;;;;16.53;5.63;;;;;;;-15.34;52.33;99606.75;6070481;23;20049;-78
2021/12/22 06:28:51;;;;;;;12.77;5.23;;;;;;;-15.27;52.27;99585.72;6044580;23;20452;-79
2021/12/22 06:31:17;;;;;;;14.20;5.33;;;;;;;-15.08;51.94;99585.75;6049285;23;20022;-79
2021/12/22 06:33:43;;;;;;;10.40;4.23;;;;;;;-14.75;52.35;99543.59;6085296;23;20023;-79
2021/12/22 06:36:09;;;;;;;9.90;4.30;;;;;;;-13.91;52.06;99531.50;6086000;23;20049;-76
2021/12/22 06:38:35;;;;;;;6.03;3.33;;;;;;;-12.77;50.24;99591.53;6078301;23;20022;-81
2021/12/22 06:41:02;;;;;;;11.17;4.30;;;;;;;-11.83;51.72;99588.81;6027589;23;20050;-78
2021/12/22 06:43:38;;;;;;;8.80;3.47;;;;;;;-10.75;51.60;99592.53;6063515;23;20553;-77
2021/12/22 06:46:09;;;;;;;10.73;4.73;;;;;;;-10.62;51.44;99439.22;6059846;23;20373;-81
2021/12/22 06:48:36;;;;;;;9.33;3.50;;;;;;;-9.21;49.71;99590.44;6083029;23;20015;-79
2021/12/22 06:51:04;;;;;;;10.60;4.20;;;;;;;-8.67;50.41;99569.59;6086343;23;20054;-76
2021/12/22 06:53:34;;;;;;;7.60;3.20;;;;;;;-8.24;49.81;99517.50;6079366;23;20062;-76
2021/12/22 06:56:08;;;;;;;10.45;3.70;;;;;;;-7.42;49.64;99505.53;6082267;23;20019;-76
2021/12/22 06:58:37;;;;;;;8.32;4.00;;;;;;;-6.82;49.08;99562.88;6084870;23;20050;-77
2021/12/22 07:01:36;;;;;;;10.18;3.95;;;;;;;-7.71;48.39;99565.34;6060485;23;20018;-77
2021/12/22 07:04:03;;;;;;;10.13;4.50;;;;;;;-9.74;48.64;99428.25;6033582;23;20030;-80
2021/12/22 07:06:35;;;;;;;9.10;3.43;;;;;;;-9.68;48.13;99578.16;6063483;23;20078;-77
2021/12/22 07:09:45;;;;;;;10.50;4.53;;;;;;;-10.74;48.54;99546.50;5975583;24;20020;-80
2021/12/22 07:12:12;;;;;;;9.63;3.80;;;;;;;-10.96;48.67;99541.56;6069330;23;20022;-79
2021/12/22 07:14:55;;;;;;;10.40;4.60;;;;;;;-11.10;48.58;99570.72;6059747;23;20019;-78
2021/12/22 07:17:25;;;;;;;9.37;4.27;;;;;;;-11.12;49.29;99600.78;6032956;23;20146;-77
2021/12/22 07:20:21;;;;;;;12.45;4.53;;;;;;;-11.35;48.49;99606.59;6086883;23;20073;-75
2021/12/22 07:23:08;;;;;;;10.83;4.40;;;;;;;-11.98;48.92;99504.78;6065365;23;20122;-77
2021/12/22 07:25:44;;;;;;;11.40;4.20;;;;;;;-12.78;48.56;99404.31;6085491;23;20018;-79
2021/12/22 07:28:13;;;;;;;12.90;4.50;;;;;;;-11.85;48.64;99622.06;6087609;23;20078;-76
2021/12/22 07:30:52;;;;;;;9.87;4.33;;;;;;;-11.98;48.93;99613.63;6064511;23;20018;-78
2021/12/22 07:33:18;;;;;;;10.60;3.97;;;;;;;-12.61;49.10;99530.97;6086852;23;19999;-78
2021/12/22 07:36:00;;;;;;;8.30;3.83;;;;;;;-12.62;48.99;99516.69;6015071;23;20075;-76
2021/12/22 07:38:39;;;;;;;9.00;3.43;;;;;;;-11.96;48.91;99636.31;6041518;23;20066;-77
2021/12/22 07:41:09;;;;;;;8.27;3.77;;;;;;;-12.01;48.95;99632.59;6088219;23;20025;-78
2021/12/22 07:43:46;;;;;;;8.70;3.87;;;;;;;-12.01;48.09;99622.56;6062432;23;20014;-78
2021/12/22 07:46:13;;;;;;;8.97;3.60;;;;;;;-13.95;48.64;99346.84;6060660;23;20022;-75
2021/12/22 07:48:46;;;;;;;10.00;4.07;;;;;;;-12.48;48.91;99581.34;6087729;23;20026;-80
2021/12/22 07:51:15;;;;;;;12.00;3.80;;;;;;;-12.58;49.32;99567.22;6039338;23;19998;-78
2021/12/22 07:53:45;;;;;;;12.30;3.30;;;;;;;-12.24;49.35;99631.66;6085066;23;20018;-77
2021/12/22 07:56:33;;;;;;;10.57;3.93;;;;;;;-12.31;48.87;99635.31;6062155;23;20034;-78
2021/12/22 07:59:12;;;;;;;6.83;3.27;;;;;;;-13.11;49.41;99474.47;6034535;23;20067;-76
2021/12/22 08:01:40;;;;;;;9.73;4.20;;;;;;;-12.47;48.94;99572.19;6038417;23;20472;-78
2021/12/22 08:04:07;;;;;;;11.43;3.63;;;;;;;-12.47;49.17;99583.09;6087423;23;19999;-77
2021/12/22 08:06:37;;;;;;;7.10;3.87;;;;;;;-12.69;49.04;99534.53;6064629;23;20019;-81
2021/12/22 08:09:09;;;;;;;10.68;4.10;;;;;;;-12.05;48.96;99640.66;6063424;23;20110;-78
2021/12/22 08:11:47;;;;;;;7.70;3.83;;;;;;;-12.32;48.75;99602.63;6033756;23;20028;-76
2021/12/22 08:14:23;;;;;;;9.03;3.23;;;;;;;-12.36;49.15;99591.47;6045334;23;20041;-76
2021/12/22 08:17:04;;;;;;;;;;;;;;;;;;;;;
2021/12/22 08:19:33;;;;;;;9.73;3.00;;;;;;;-11.89;49.21;99641.06;6038631;23;20023;-78
2021/12/22 08:21:59;;;;;;;9.37;3.53;;;;;;;-11.76;49.05;99642.88;6057019;23;20018;-78
2021/12/22 08:24:25;;;;;;;7.27;3.70;;;;;;;-12.13;48.66;99612.44;6072510;23;20041;-81
2021/12/22 08:26:54;;;;;;;16.07;4.47;;;;;;;-12.62;48.53;99514.19;6046902;23;20018;-77
2021/12/22 08:29:20;;;;;;;6.73;3.97;;;;;;;-13.20;48.72;99378.56;6071464;23;20171;-77
2021/12/22 08:31:46;;;;;;;7.67;3.90;;;;;;;-11.79;48.90;99589.91;6081112;23;20015;-78
2021/12/22 08:34:36;;;;;;;9.30;4.00;;;;;;;-13.11;48.76;99363.38;6047260;23;20026;-76
2021/12/22 08:40:01;;;;;;;8.93;3.33;;;;;;;-12.85;48.15;99409.63;6052918;23;20022;-78
2021/12/22 08:42:27;;;;;;;9.53;3.83;;;;;;;-11.29;48.50;99644.75;6072987;23;20018;-78
2021/12/22 08:44:53;;;;;;;7.87;3.77;;;;;;;-11.58;48.21;99568.06;6071142;23;20026;-79
2021/12/22 08:47:19;;;;;;;9.20;4.00;;;;;;;-11.02;48.86;99622.44;6072722;23;20077;-79
2021/12/22 08:49:46;;;;;;;12.30;3.97;;;;;;;-10.96;48.30;99605.28;6048661;23;20019;-78
2021/12/22 08:52:12;;;;;;;10.30;3.90;;;;;;;-11.11;48.66;99551.38;6046723;23;20014;-77
2021/12/22 08:54:38;;;;;;;10.80;4.20;;;;;;;-10.54;48.32;99622.50;6044483;23;20023;-79
2021/12/22 08:57:10;;;;;;;13.80;4.80;;;;;;;-11.24;48.71;99515.31;6021409;23;20019;-79
2021/12/22 08:59:36;;;;;;;12.70;4.27;;;;;;;-10.43;47.94;99620.78;6071874;23;20050;-80
2021/12/22 09:02:03;;;;;;;9.30;3.73;;;;;;;-10.32;47.88;99635.84;6046229;23;20022;-76
2021/12/22 09:04:29;;;;;;;11.77;4.73;;;;;;;-10.47;47.89;99615.50;6045269;23;20377;-79
2021/12/22 09:06:55;;;;;;;10.47;4.37;;;;;;;-10.36;48.24;99623.78;6068708;23;20047;-78
2021/12/22 09:09:22;;;;;;;10.77;3.50;;;;;;;-10.32;47.39;99625.78;6044589;23;20023;-77
2021/12/22 09:11:49;;;;;;;12.70;4.10;;;;;;;-10.37;46.96;99621.19;6046814;23;20022;-77
2021/12/22 09:14:17;;;;;;;12.00;4.57;;;;;;;-10.47;47.40;99623.06;6071185;23;20049;-77
2021/12/22 09:16:48;;;;;;;7.93;3.73;;;;;;;-11.12;47.54;99507.78;6071451;23;20113;-78
2021/12/22 09:19:17;;;;;;;8.80;3.47;;;;;;;-10.75;47.25;99565.72;6069913;23;20054;-77
2021/12/22 09:21:48;;;;;;;8.27;4.30;;;;;;;-10.95;47.10;99554.25;6053287;23;20267;-77
2021/12/22 09:24:18;;;;;;;10.40;4.32;;;;;;;-11.00;47.65;99529.53;6085020;23;20532;-77
2021/12/22 09:26:54;;;;;;;11.03;4.57;;;;;;;-10.37;47.32;99642.19;6085007;23;20074;-79
2021/12/22 09:29:19;;;;;;;10.27;4.37;;;;;;;-10.23;48.51;99612.97;6083800;23;20037;-78
2021/12/22 09:31:45;;;;;;;12.20;4.27;;;;;;;-10.09;47.65;99606.38;6081432;23;20067;-77
2021/12/22 09:34:11;;;;;;;14.03;4.27;;;;;;;-9.26;47.74;99621.25;6082308;23;20420;-78
2021/12/22 09:36:43;;;;;;;8.40;4.17;;;;;;;-8.93;47.49;99601.56;6085975;23;20019;-76
2021/12/22 09:39:09;;;;;;;7.03;4.27;;;;;;;-9.06;47.49;99518.34;6033170;23;20078;-78
2021/12/22 09:41:49;;;;;;;12.05;4.35;;;;;;;-7.45;47.82;99611.53;6087706;23;20006;-78
2021/12/22 09:44:17;;;;;;;12.18;5.05;;;;;;;-6.60;47.40;99580.13;6058551;23;20453;-78
2021/12/22 09:46:45;;;;;;;12.60;4.50;;;;;;;-6.56;46.49;99566.00;6082867;23;20029;-78
2021/12/22 09:49:34;;;;;;;12.48;5.03;;;;;;;-7.16;46.36;99544.09;6056823;23;20075;-76
2021/12/22 09:52:16;;;;;;;14.00;4.88;;;;;;;-7.15;45.86;99588.84;6081373;23;20018;-79
2021/12/22 09:54:46;;;;;;;12.68;5.03;;;;;;;-7.50;45.83;99576.66;6069523;23;20023;-79
2021/12/22 09:57:14;;;;;;;12.73;5.38;;;;;;;-7.91;45.26;99570.84;6029223;23;20078;-79
2021/12/22 09:59:41;;;;;;;12.32;5.07;;;;;;;-7.88;46.05;99603.88;6087539;23;20023;-79
2021/12/22 10:02:07;;;;;;;11.73;4.90;;;;;;;-8.41;45.66;99544.22;6084716;23;20023;-79
2021/12/22 10:04:33;;;;;;;10.02;4.93;;;;;;;-8.20;45.70;99596.06;6071183;23;20034;-77
2021/12/22 10:06:59;;;;;;;9.07;4.57;;;;;;;-8.52;45.62;99578.91;6068301;23;20521;-80
2021/12/22 10:09:25;;;;;;;11.60;4.57;;;;;;;-8.81;45.40;99576.28;6044647;23;20018;-79
2021/12/22 10:11:51;;;;;;;11.20;5.27;;;;;;;-8.87;45.85;99564.91;6066825;23;20018;-78
2021/12/22 10:14:23;;;;;;;12.13;5.30;;;;;;;-8.65;45.66;99617.63;6018873;23;20110;-79
2021/12/22 10:16:52;;;;;;;9.30;4.72;;;;;;;-9.00;45.45;99596.03;6065877;23;20357;-79
2021/12/22 10:19:23;;;;;;;9.67;4.60;;;;;;;-9.24;45.34;99581.88;6018403;23;20025;-78
2021/12/22 10:21:55;;;;;;;11.13;5.10;;;;;;;-9.09;45.75;99624.91;6043988;23;20110;-80
2021/12/22 10:24:34;;;;;;;11.93;4.80;;;;;;;-9.47;44.51;99612.22;6042723;23;20071;-79
2021/12/22 10:27:06;;;;;;;10.17;4.53;;;;;;;-9.68;45.46;99602.44;6069075;23;20109;-79
2021/12/22 10:29:33;;;;;;;12.13;4.50;;;;;;;-9.92;45.52;99591.56;6044182;23;20046;-80
2021/12/22 10:32:12;;;;;;;11.37;4.57;;;;;;;-9.88;45.33;99613.69;6043542;23;20023;-79
2021/12/22 10:35:03;;;;;;;12.80;4.97;;;;;;;-9.73;46.03;99618.91;6043936;23;20481;-80
2021/12/22 10:37:34;;;;;;;10.97;4.63;;;;;;;-9.75;46.13;99625.50;6069134;23;20041;-80
2021/12/22 10:40:35;;;;;;;12.52;5.15;;;;;;;-9.78;45.60;99628.66;6076127;23;20015;-78
2021/12/22 10:43:07;;;;;;;8.83;4.10;;;;;;;-10.00;44.67;99622.13;6087595;23;20078;-79
2021/12/22 10:46:02;;;;;;;13.50;4.50;;;;;;;-11.57;45.14;99373.91;6052662;23;20055;-79
2021/12/22 10:51:41;;;;;;;12.30;4.87;;;;;;;-10.22;44.94;99613.81;6093679;23;20007;-78
2021/12/22 10:54:14;;;;;;;12.27;4.73;;;;;;;-10.40;45.74;99595.84;6024708;23;20019;-80
2021/12/22 10:56:43;;;;;;;10.07;4.33;;;;;;;-10.58;45.37;99580.28;6037801;23;20054;-79
2021/12/22 10:59:20;;;;;;;9.50;4.43;;;;;;;-10.35;45.52;99612.97;6055030;23;20026;-81
2021/12/22 11:01:57;;;;;;;9.33;4.70;;;;;;;-10.33;45.54;99624.03;6080121;23;20018;-80
2021/12/22 11:04:29;;;;;;;9.87;4.47;;;;;;;-10.65;45.94;99584.88;6083301;23;20030;-82
2021/12/22 11:07:07;;;;;;;8.68;4.10;;;;;;;-10.58;45.60;99623.91;6080656;23;20023;-81
2021/12/22 11:09:36;;;;;;;10.20;4.57;;;;;;;-10.60;45.30;99638.91;6081847;23;20078;-79
2021/12/22 11:12:06;;;;;;;8.73;4.27;;;;;;;-11.12;45.61;99560.56;6057340;23;20023;-80
2021/12/22 11:14:40;;;;;;;11.83;4.30;;;;;;;-11.21;45.69;99564.91;6055763;23;20030;-77
2021/12/22 11:17:06;;;;;;;12.23;4.60;;;;;;;-10.66;45.36;99651.03;6077660;23;20088;-77
2021/12/22 11:19:52;;;;;;;12.80;4.30;;;;;;;-10.72;45.39;99648.09;6054503;23;20356;-80
2021/12/22 11:22:24;;;;;;;10.57;4.57;;;;;;;-11.01;45.49;99639.28;6076346;23;20421;-79
2021/12/22 11:24:52;;;;;;;;;;;;;;;-11.12;45.90;99650.16;6030795;23;20018;-77
2021/12/22 11:27:25;;;;;;;9.03;4.13;;;;;;;-11.31;45.89;99633.69;6027709;23;19913;-78
2021/12/22 11:29:58;;;;;;;14.30;3.87;;;;;;;-11.55;45.56;99625.19;6052099;23;20029;-78
2021/12/22 11:32:26;;;;;;;10.50;4.10;;;;;;;-11.49;45.15;99663.34;6050893;23;20515;-76
2021/12/22 11:35:15;;;;;;;8.30;3.77;;;;;;;-11.61;45.85;99645.69;6070330;23;20022;-80
2021/12/22 11:37:41;;;;;;;11.53;4.47;;;;;;;-11.87;45.83;99623.59;6022529;23;20033;-77
2021/12/22 11:40:11;;;;;;;12.53;4.37;;;;;;;-11.69;45.38;99669.34;6054385;23;20019;-78
2021/12/22 11:42:39;;;;;;;5.87;3.90;;;;;;;-12.04;45.49;99635.75;6088703;23;20042;-79
2021/12/22 11:45:21;;;;;;;12.00;4.70;;;;;;;-11.84;45.69;99677.44;6054653;23;20021;-78
2021/12/22 11:47:53;;;;;;;12.50;4.13;;;;;;;-11.83;45.63;99676.69;6046049;23;20141;-78
2021/12/22 11:50:36;;;;;;;10.83;3.93;;;;;;;-11.90;45.71;99684.50;6020101;23;20082;-77
2021/12/22 11:53:08;;;;;;;10.87;4.37;;;;;;;-11.95;45.88;99683.25;6045512;23;20043;-79
2021/12/22 11:56:00;;;;;;;10.30;4.10;;;;;;;-12.61;45.78;99608.69;6048156;23;20445;-78